createdAt,value
2023-05-22T00:00:09.254Z,2.37
2023-05-22T00:03:11.486Z,2.00
2023-05-22T00:06:15.035Z,1.98
2023-05-22T00:09:17.507Z,2.45
2023-05-22T00:12:19.783Z,2.20
2023-05-22T00:15:22.013Z,2.22
2023-05-22T00:18:25.529Z,2.17
2023-05-22T00:21:27.989Z,2.25
2023-05-22T00:24:30.287Z,2.15
2023-05-22T00:27:33.221Z,2.37
2023-05-22T00:30:36.998Z,2.80
2023-05-22T00:33:39.428Z,2.00
2023-05-22T00:36:41.741Z,2.55
2023-05-22T00:39:44.026Z,2.92
2023-05-22T00:42:46.940Z,2.45
2023-05-22T00:45:49.337Z,2.60
2023-05-22T00:48:52.619Z,2.25
2023-05-22T00:51:55.256Z,2.70
2023-05-22T00:54:57.609Z,2.83
2023-05-22T00:58:01.203Z,2.40
2023-05-22T01:01:03.608Z,2.33
2023-05-22T01:04:08.157Z,2.17
2023-05-22T01:07:10.519Z,2.20
2023-05-22T01:10:12.823Z,2.87
2023-05-22T01:13:50.684Z,2.50
2023-05-22T01:17:00.118Z,2.60
2023-05-22T01:20:10.253Z,2.37
2023-05-22T01:23:30.034Z,2.10
2023-05-22T01:26:45.571Z,2.00
2023-05-22T01:30:21.396Z,2.47
2023-05-22T01:33:27.112Z,2.12
2023-05-22T01:36:32.073Z,2.25
2023-05-22T01:39:34.500Z,2.15
2023-05-22T01:42:36.857Z,2.58
2023-05-22T01:45:39.160Z,2.67
2023-05-22T01:48:41.393Z,2.78
2023-05-22T01:51:57.936Z,2.37
2023-05-22T01:55:21.272Z,2.20
2023-05-22T01:58:34.525Z,2.17
2023-05-22T02:01:38.387Z,2.35
2023-05-22T02:04:45.443Z,2.10
2023-05-22T02:07:48.003Z,2.28
2023-05-22T02:10:51.290Z,2.33
2023-05-22T02:13:53.550Z,2.47
2023-05-22T02:16:56.826Z,2.70
2023-05-22T02:19:59.037Z,2.75
2023-05-22T02:23:01.243Z,2.22
2023-05-22T02:26:04.769Z,2.25
2023-05-22T02:29:07.004Z,2.00
2023-05-22T02:32:09.277Z,2.30
2023-05-22T02:35:12.018Z,2.30
2023-05-22T02:38:14.249Z,2.47
2023-05-22T02:41:16.479Z,2.10
2023-05-22T02:44:18.706Z,2.03
2023-05-22T02:47:20.965Z,2.50
2023-05-22T02:50:23.157Z,2.37
2023-05-22T02:53:25.364Z,2.20
2023-05-22T02:56:28.972Z,2.53
2023-05-22T02:59:31.736Z,2.67
2023-05-22T03:02:34.577Z,2.50
2023-05-22T03:05:37.060Z,3.10
2023-05-22T03:08:43.440Z,2.60
2023-05-22T03:11:45.835Z,2.80
2023-05-22T03:14:48.059Z,2.92
2023-05-22T03:17:50.410Z,2.67
2023-05-22T03:20:52.760Z,2.08
2023-05-22T03:23:55.043Z,2.12
2023-05-22T03:26:57.249Z,2.40
2023-05-22T03:29:59.447Z,3.20
2023-05-22T03:33:01.882Z,2.62
2023-05-22T03:36:04.706Z,2.10
2023-05-22T03:39:06.923Z,2.33
2023-05-22T03:42:09.262Z,1.80
2023-05-22T03:45:11.802Z,2.42
2023-05-22T03:48:13.992Z,2.37
2023-05-22T03:51:18.672Z,2.03
2023-05-22T03:54:22.277Z,2.12
2023-05-22T03:57:24.595Z,2.17
2023-05-22T04:00:27.162Z,2.37
2023-05-22T04:03:29.553Z,2.22
2023-05-22T04:06:33.102Z,2.17
2023-05-22T04:09:36.298Z,2.25
2023-05-22T04:12:38.577Z,2.10
2023-05-22T04:15:46.831Z,2.10
2023-05-22T04:18:49.184Z,2.00
2023-05-22T04:21:51.401Z,2.33
2023-05-22T04:24:53.773Z,2.75
2023-05-22T04:27:56.032Z,1.90
2023-05-22T04:30:58.296Z,1.80
2023-05-22T04:34:01.155Z,2.47
2023-05-22T04:37:04.871Z,1.90
2023-05-22T04:40:08.788Z,2.17
2023-05-22T04:43:14.158Z,1.60
2023-05-22T04:46:16.502Z,1.98
2023-05-22T04:49:18.745Z,2.15
2023-05-22T04:52:21.892Z,1.70
2023-05-22T04:55:24.158Z,1.80
2023-05-22T04:58:27.485Z,1.62
2023-05-22T05:01:31.671Z,1.62
2023-05-22T05:04:35.173Z,1.80
2023-05-22T05:07:38.855Z,1.60
2023-05-22T05:10:41.232Z,1.60
2023-05-22T05:13:43.726Z,1.98
2023-05-22T05:16:46.867Z,1.70
2023-05-22T05:19:49.091Z,2.00
2023-05-22T05:22:51.484Z,1.90
2023-05-22T05:25:53.752Z,1.77
2023-05-22T05:28:56.920Z,1.60
2023-05-22T05:31:59.164Z,2.00
2023-05-22T05:35:01.373Z,2.08
2023-05-22T05:38:04.022Z,1.80
2023-05-22T05:41:06.475Z,2.28
2023-05-22T05:44:08.700Z,2.20
2023-05-22T05:47:11.217Z,1.98
2023-05-22T05:50:15.673Z,1.95
2023-05-22T05:53:17.937Z,1.77
2023-05-22T05:56:20.211Z,1.65
2023-05-22T05:59:22.529Z,3.45
2023-05-22T06:02:24.876Z,1.62
2023-05-22T06:05:29.427Z,1.90
2023-05-22T06:08:32.293Z,1.40
2023-05-22T06:11:34.652Z,1.50
2023-05-22T06:14:37.384Z,1.58
2023-05-22T06:17:39.748Z,1.58
2023-05-22T06:20:42.150Z,1.60
2023-05-22T06:23:44.493Z,2.08
2023-05-22T06:26:46.717Z,1.65
2023-05-22T06:29:49.801Z,1.73
2023-05-22T06:32:52.507Z,1.48
2023-05-22T06:35:55.493Z,2.20
2023-05-22T06:38:57.881Z,1.48
2023-05-22T06:42:00.197Z,1.60
2023-05-22T06:45:02.534Z,1.40
2023-05-22T06:48:04.952Z,1.60
2023-05-22T06:51:08.371Z,1.65
2023-05-22T06:54:12.397Z,1.60
2023-05-22T06:57:14.699Z,1.40
2023-05-22T07:03:21.347Z,2.08
2023-05-22T07:06:24.782Z,2.10
2023-05-22T07:09:27.114Z,1.95
2023-05-22T07:12:29.680Z,1.52
2023-05-22T07:15:31.960Z,1.52
2023-05-22T07:18:34.288Z,1.48
2023-05-22T07:21:36.680Z,1.45
2023-05-22T07:24:39.155Z,1.55
2023-05-22T07:27:41.391Z,1.58
2023-05-22T07:30:43.608Z,1.12
2023-05-22T07:33:46.001Z,1.37
2023-05-22T07:36:48.802Z,1.08
2023-05-22T07:39:51.001Z,1.40
2023-05-22T07:42:53.203Z,1.40
2023-05-22T07:45:55.453Z,2.08
2023-05-22T07:48:57.723Z,1.60
2023-05-22T07:51:59.946Z,1.27
2023-05-22T07:55:02.182Z,1.45
2023-05-22T07:58:05.240Z,1.30
2023-05-22T08:01:09.422Z,2.42
2023-05-22T08:04:12.036Z,1.30
2023-05-22T08:07:14.403Z,1.40
2023-05-22T08:10:19.822Z,1.30
2023-05-22T08:13:22.456Z,1.58
2023-05-22T08:16:25.326Z,1.30
2023-05-22T08:19:27.715Z,1.48
2023-05-22T08:22:30.236Z,1.40
2023-05-22T08:25:32.862Z,1.92
2023-05-22T08:28:35.163Z,1.70
2023-05-22T08:31:37.561Z,1.37
2023-05-22T08:34:40.530Z,1.52
2023-05-22T08:37:42.921Z,1.40
2023-05-22T08:40:47.973Z,1.70
2023-05-22T08:43:50.370Z,1.35
2023-05-22T08:46:53.604Z,1.58
2023-05-22T08:49:58.079Z,1.50
2023-05-22T08:53:03.815Z,1.65
2023-05-22T08:56:07.246Z,1.40
2023-05-22T08:59:10.497Z,1.50
2023-05-22T09:02:12.896Z,1.70
2023-05-22T09:05:17.131Z,1.60
2023-05-22T09:08:20.844Z,1.48
2023-05-22T09:11:24.512Z,1.33
2023-05-22T09:14:26.842Z,1.50
2023-05-22T09:17:29.083Z,1.25
2023-05-22T09:20:39.243Z,1.42
2023-05-22T09:23:41.918Z,1.48
2023-05-22T09:26:44.167Z,1.40
2023-05-22T09:29:56.634Z,1.40
2023-05-22T09:32:58.881Z,1.35
2023-05-22T09:36:01.601Z,1.42
2023-05-22T09:39:04.750Z,1.45
2023-05-22T09:42:08.661Z,1.45
2023-05-22T09:45:11.353Z,1.45
2023-05-22T09:48:17.024Z,1.40
2023-05-22T09:51:26.512Z,1.50
2023-05-22T09:54:29.437Z,1.60
2023-05-22T09:57:33.970Z,1.58
2023-05-22T10:00:36.672Z,1.58
2023-05-22T10:03:39.378Z,1.33
2023-05-22T10:06:42.947Z,1.50
2023-05-22T10:09:49.529Z,1.58
2023-05-22T10:13:02.361Z,1.65
2023-05-22T10:16:05.014Z,1.58
2023-05-22T10:19:08.311Z,1.35
2023-05-22T10:22:11.793Z,1.60
2023-05-22T10:25:14.212Z,1.87
2023-05-22T10:28:25.551Z,1.70
2023-05-22T10:31:37.904Z,1.73
2023-05-22T10:34:56.441Z,1.67
2023-05-22T10:38:23.301Z,1.58
2023-05-22T10:41:26.340Z,1.55
2023-05-22T10:44:28.644Z,1.70
2023-05-22T10:47:33.523Z,1.40
2023-05-22T10:50:36.575Z,1.52
2023-05-22T10:53:40.945Z,1.90
2023-05-22T10:56:43.271Z,1.40
2023-05-22T10:59:48.719Z,1.55
2023-05-22T11:02:51.299Z,2.30
2023-05-22T11:05:54.418Z,1.80
2023-05-22T11:08:57.646Z,1.42
2023-05-22T11:12:18.090Z,1.70
2023-05-22T11:15:30.680Z,1.60
2023-05-22T11:18:33.136Z,1.87
2023-05-22T11:21:46.481Z,1.73
2023-05-22T11:24:49.186Z,1.65
2023-05-22T11:27:51.495Z,1.60
2023-05-22T11:30:54.145Z,1.83
2023-05-22T11:33:56.583Z,1.62
2023-05-22T11:37:00.151Z,1.60
2023-05-22T11:40:05.828Z,1.67
2023-05-22T11:43:08.142Z,1.70
2023-05-22T11:46:11.197Z,2.20
2023-05-22T11:49:13.546Z,1.60
2023-05-22T11:52:18.954Z,1.62
2023-05-22T11:55:21.216Z,1.67
2023-05-22T11:58:33.478Z,1.80
2023-05-22T12:01:36.434Z,1.48
2023-05-22T12:04:38.663Z,1.60
2023-05-22T12:07:41.147Z,1.70
2023-05-22T12:10:48.007Z,1.73
2023-05-22T12:14:00.552Z,1.98
2023-05-22T12:17:06.436Z,1.80
2023-05-22T12:20:13.214Z,1.50
2023-05-22T12:23:48.073Z,1.65
2023-05-22T12:26:51.656Z,1.62
2023-05-22T12:29:56.560Z,1.75
2023-05-22T12:32:59.118Z,2.60
2023-05-22T12:36:07.898Z,1.60
2023-05-22T12:39:16.654Z,1.80
2023-05-22T12:42:18.831Z,1.90
2023-05-22T12:45:21.072Z,1.80
2023-05-22T12:48:23.304Z,1.83
2023-05-22T12:51:27.153Z,1.95
2023-05-22T12:54:29.301Z,1.80
2023-05-22T12:57:31.668Z,1.50
2023-05-22T13:00:34.448Z,1.67
2023-05-22T13:03:36.688Z,1.50
2023-05-22T13:06:38.916Z,2.30
2023-05-22T13:09:41.762Z,1.70
2023-05-22T13:12:46.903Z,1.65
2023-05-22T13:15:49.327Z,1.90
2023-05-22T13:18:51.687Z,1.80
2023-05-22T13:21:53.910Z,1.77
2023-05-22T13:24:56.120Z,1.87
2023-05-22T13:27:59.720Z,1.77
2023-05-22T13:31:02.021Z,2.10
2023-05-22T13:34:04.693Z,1.70
2023-05-22T13:37:07.617Z,1.75
2023-05-22T13:40:10.135Z,1.90
2023-05-22T13:43:12.412Z,2.03
2023-05-22T13:46:14.847Z,1.77
2023-05-22T13:49:17.350Z,1.70
2023-05-22T13:52:19.609Z,2.00
2023-05-22T13:55:22.155Z,1.65
2023-05-22T13:58:24.374Z,2.05
2023-05-22T14:01:26.623Z,1.67
2023-05-22T14:04:29.000Z,1.67
2023-05-22T14:07:31.212Z,1.62
2023-05-22T14:10:34.591Z,1.42
2023-05-22T14:13:36.881Z,1.60
2023-05-22T14:16:39.441Z,1.90
2023-05-22T14:19:41.675Z,1.55
2023-05-22T14:22:56.322Z,1.80
2023-05-22T14:25:59.696Z,1.60
2023-05-22T14:29:01.877Z,1.80
2023-05-22T14:32:05.136Z,1.67
2023-05-22T14:35:07.800Z,1.80
2023-05-22T14:38:10.043Z,1.55
2023-05-22T14:41:12.760Z,1.83
2023-05-22T14:44:15.058Z,1.52
2023-05-22T14:47:17.259Z,1.35
2023-05-22T14:50:20.834Z,1.80
2023-05-22T14:53:23.438Z,1.70
2023-05-22T14:56:26.555Z,1.70
2023-05-22T14:59:28.783Z,1.90
2023-05-22T15:02:31.462Z,1.40
2023-05-22T15:05:33.839Z,1.58
2023-05-22T15:08:36.719Z,1.87
2023-05-22T15:11:39.064Z,1.80
2023-05-22T15:14:41.499Z,1.27
2023-05-22T15:17:43.797Z,1.65
2023-05-22T15:20:46.328Z,1.92
2023-05-22T15:23:48.607Z,1.65
2023-05-22T15:26:51.564Z,2.72
2023-05-22T15:29:53.779Z,1.70
2023-05-22T15:32:56.083Z,1.77
2023-05-22T15:35:58.344Z,1.52
2023-05-22T15:39:00.569Z,1.55
2023-05-22T15:42:06.795Z,1.67
2023-05-22T15:45:09.482Z,1.60
2023-05-22T15:48:12.550Z,1.65
2023-05-22T15:51:14.821Z,1.60
2023-05-22T15:54:17.437Z,1.77
2023-05-22T15:57:20.065Z,1.83
2023-05-22T16:00:22.488Z,1.40
2023-05-22T16:03:24.778Z,1.90
2023-05-22T16:06:28.538Z,1.55
2023-05-22T16:09:32.683Z,1.50
2023-05-22T16:12:35.094Z,1.65
2023-05-22T16:15:39.849Z,1.70
2023-05-22T16:18:42.373Z,1.67
2023-05-22T16:21:44.802Z,1.75
2023-05-22T16:24:47.204Z,1.85
2023-05-22T16:27:49.539Z,1.85
2023-05-22T16:30:51.821Z,3.17
2023-05-22T16:33:54.204Z,1.80
2023-05-22T16:36:56.438Z,1.67
2023-05-22T16:39:58.652Z,1.83
2023-05-22T16:43:01.067Z,1.67
2023-05-22T16:46:03.488Z,1.80
2023-05-22T16:49:05.845Z,1.75
2023-05-22T16:52:08.126Z,1.80
2023-05-22T16:55:10.617Z,2.28
2023-05-22T16:58:13.453Z,1.80
2023-05-22T17:01:16.016Z,1.92
2023-05-22T17:04:20.620Z,2.30
2023-05-22T17:07:23.502Z,1.90
2023-05-22T17:10:25.857Z,1.90
2023-05-22T17:13:28.147Z,2.10
2023-05-22T17:16:30.957Z,2.37
2023-05-22T17:19:33.320Z,2.42
2023-05-22T17:22:37.747Z,1.75
2023-05-22T17:25:40.146Z,2.00
2023-05-22T17:28:42.661Z,1.92
2023-05-22T17:31:44.923Z,1.90
2023-05-22T17:34:47.274Z,4.28
2023-05-22T17:37:49.458Z,1.90
2023-05-22T17:40:54.740Z,1.87
2023-05-22T17:44:00.720Z,2.28
2023-05-22T17:47:04.476Z,2.65
2023-05-22T17:50:07.411Z,2.00
2023-05-22T17:53:09.681Z,1.98
2023-05-22T17:56:11.968Z,1.67
2023-05-22T17:59:14.219Z,1.80
2023-05-22T18:02:16.418Z,2.03
2023-05-22T18:05:18.686Z,2.05
2023-05-22T18:08:21.582Z,1.80
2023-05-22T18:11:24.056Z,2.12
2023-05-22T18:14:26.875Z,2.10
2023-05-22T18:17:29.172Z,2.30
2023-05-22T18:20:33.119Z,2.25
2023-05-22T18:23:35.417Z,2.08
2023-05-22T18:26:37.641Z,2.15
2023-05-22T18:29:40.138Z,2.00
2023-05-22T18:32:42.461Z,2.22
2023-05-22T18:35:44.760Z,2.60
2023-05-22T18:38:47.098Z,3.15
2023-05-22T18:41:49.301Z,1.70
2023-05-22T18:44:51.680Z,2.92
2023-05-22T18:47:53.948Z,2.33
2023-05-22T18:50:57.663Z,3.05
2023-05-22T18:54:00.113Z,3.40
2023-05-22T18:57:02.323Z,3.30
2023-05-22T19:00:05.176Z,3.22
2023-05-22T19:03:11.268Z,7.32
2023-05-22T19:06:13.653Z,8.32
2023-05-22T19:09:16.623Z,8.23
2023-05-22T19:12:19.207Z,5.32
2023-05-22T19:15:21.716Z,4.62
2023-05-22T19:18:24.559Z,3.53
2023-05-22T19:21:26.864Z,3.00
2023-05-22T19:24:29.163Z,3.67
2023-05-22T19:27:31.452Z,2.70
2023-05-22T19:30:33.705Z,2.50
2023-05-22T19:33:35.928Z,3.00
2023-05-22T19:36:38.229Z,2.90
2023-05-22T19:39:40.673Z,3.62
2023-05-22T19:42:43.000Z,3.00
2023-05-22T19:45:45.733Z,2.50
2023-05-22T19:48:48.115Z,2.35
2023-05-22T19:51:50.497Z,2.33
2023-05-22T19:54:52.876Z,2.12
2023-05-22T19:57:55.082Z,2.45
2023-05-22T20:00:57.291Z,2.22
2023-05-22T20:04:01.052Z,2.37
2023-05-22T20:07:04.257Z,2.22
2023-05-22T20:10:07.086Z,2.12
2023-05-22T20:13:09.247Z,2.45
2023-05-22T20:16:12.884Z,2.40
2023-05-22T20:19:15.368Z,2.45
2023-05-22T20:22:17.661Z,2.45
2023-05-22T20:25:21.266Z,2.85
2023-05-22T20:28:23.509Z,2.70
2023-05-22T20:31:25.987Z,3.03
2023-05-22T20:34:28.577Z,2.60
2023-05-22T20:37:34.801Z,2.40
2023-05-22T20:40:37.755Z,2.60
2023-05-22T20:43:43.297Z,2.28
2023-05-22T20:46:45.844Z,2.28
2023-05-22T20:49:48.107Z,2.30
2023-05-22T20:52:50.465Z,2.00
2023-05-22T20:55:53.443Z,2.15
2023-05-22T20:58:56.665Z,2.20
2023-05-22T21:01:59.650Z,2.05
2023-05-22T21:05:03.361Z,2.17
2023-05-22T21:08:08.120Z,2.30
2023-05-22T21:11:10.463Z,2.20
2023-05-22T21:14:12.821Z,2.78
2023-05-22T21:17:15.127Z,2.40
2023-05-22T21:20:17.447Z,2.50
2023-05-22T21:23:19.676Z,2.10
2023-05-22T21:26:23.074Z,2.40
2023-05-22T21:29:25.527Z,2.20
2023-05-22T21:32:27.857Z,2.12
2023-05-22T21:35:30.081Z,2.08
2023-05-22T21:38:32.327Z,2.35
2023-05-22T21:41:34.756Z,2.33
2023-05-22T21:44:37.565Z,2.30
2023-05-22T21:47:39.830Z,2.50
2023-05-22T21:50:42.244Z,2.25
2023-05-22T21:53:44.591Z,2.28
2023-05-22T21:56:46.889Z,2.30
2023-05-22T21:59:50.812Z,2.35
2023-05-22T22:02:53.075Z,2.30
2023-05-22T22:05:55.369Z,2.20
2023-05-22T22:08:59.783Z,2.50
2023-05-22T22:12:02.032Z,2.60
2023-05-22T22:15:04.547Z,4.45
2023-05-22T22:18:06.847Z,2.67
2023-05-22T22:21:09.089Z,2.60
2023-05-22T22:24:11.708Z,2.58
2023-05-22T22:27:13.952Z,2.45
2023-05-22T22:30:16.300Z,2.40
2023-05-22T22:33:18.497Z,2.65
2023-05-22T22:36:21.020Z,2.40
2023-05-22T22:39:23.226Z,2.65
2023-05-22T22:42:26.610Z,2.00
2023-05-22T22:45:28.938Z,2.12
2023-05-22T22:48:31.176Z,2.40
2023-05-22T22:51:34.553Z,2.05
2023-05-22T22:54:36.814Z,2.60
2023-05-22T22:57:39.175Z,2.25
2023-05-22T23:00:41.462Z,2.50
2023-05-22T23:03:43.655Z,2.30
2023-05-22T23:06:46.148Z,2.20
2023-05-22T23:09:48.411Z,2.22
2023-05-22T23:12:50.716Z,2.40
2023-05-22T23:15:53.117Z,2.75
2023-05-22T23:18:55.418Z,2.30
2023-05-22T23:21:57.813Z,2.55
2023-05-22T23:25:00.116Z,2.47
2023-05-22T23:28:02.360Z,2.92
2023-05-22T23:31:04.580Z,2.08
2023-05-22T23:34:06.845Z,2.20
2023-05-22T23:37:09.155Z,2.60
2023-05-22T23:40:11.753Z,2.20
2023-05-22T23:43:13.941Z,2.20
2023-05-22T23:46:16.827Z,2.47
2023-05-22T23:49:19.089Z,2.80
2023-05-22T23:52:22.132Z,2.47
2023-05-22T23:55:24.377Z,3.37
2023-05-22T23:58:29.372Z,2.35
